GEC49 EGLL-EDDF
Flight info
| Callsign | GEC49 |
|---|---|
| Flight time | 1h 19m |
| Altitude | 35000 |
| Route | BPK Q295 MATCH DCT REDFA DCT TACHA DCT NOLRU DCT DIXAT DIXAT1A |
| Aircraft | B77L/H-SDE1E2E3FGHIJ2J3J4J5M1RWXY/LB1D1 |
Departure
| Time | 2026-05-07 05:23 |
|---|---|
| Airport | London Heathrow Airport (EGLL) |
Arrival
| Time | 2026-05-07 06:42 |
|---|---|
| Airport | Frankfurt Main Airport (EDDF) |
| Time | Latitude | Longitude | Altitude | Speed | Heading |
|---|---|---|---|---|---|
| 2026-05-07 04:51 | 51.46189 | -0.46602 | 89 ft | 0 kts | 178° |
| 2026-05-07 05:11 | 51.46201 | -0.46602 | 90 ft | 3 kts | 178° |
| 2026-05-07 05:11 | 51.46221 | -0.46603 | 87 ft | 3 kts | 178° |
| 2026-05-07 05:11 | 51.46241 | -0.46605 | 87 ft | 3 kts | 179° |
| 2026-05-07 05:12 | 51.46262 | -0.46605 | 88 ft | 3 kts | 180° |
| 2026-05-07 05:12 | 51.46282 | -0.46605 | 88 ft | 3 kts | 180° |
| 2026-05-07 05:12 | 51.46300 | -0.46605 | 89 ft | 2 kts | 180° |
| 2026-05-07 05:12 | 51.46311 | -0.46605 | 89 ft | 3 kts | 191° |
| 2026-05-07 05:13 | 51.46321 | -0.46602 | 89 ft | 3 kts | 234° |
| 2026-05-07 05:13 | 51.46325 | -0.46589 | 91 ft | 3 kts | 274° |
| 2026-05-07 05:13 | 51.46323 | -0.46557 | 89 ft | 3 kts | 276° |
| 2026-05-07 05:13 | 51.46322 | -0.46532 | 90 ft | 1 kts | 269° |
| 2026-05-07 05:14 | 51.46322 | -0.46529 | 89 ft | 0 kts | 269° |
| 2026-05-07 05:16 | 51.46321 | -0.46546 | 89 ft | 4 kts | 269° |
| 2026-05-07 05:16 | 51.46321 | -0.46622 | 92 ft | 10 kts | 269° |
| 2026-05-07 05:17 | 51.46320 | -0.46751 | 90 ft | 13 kts | 271° |
| 2026-05-07 05:17 | 51.46324 | -0.46899 | 89 ft | 14 kts | 271° |
| 2026-05-07 05:17 | 51.46322 | -0.47050 | 90 ft | 14 kts | 269° |
| 2026-05-07 05:17 | 51.46321 | -0.47209 | 92 ft | 15 kts | 269° |
| 2026-05-07 05:18 | 51.46332 | -0.47382 | 93 ft | 16 kts | 288° |
| 2026-05-07 05:18 | 51.46340 | -0.47558 | 90 ft | 16 kts | 266° |
| 2026-05-07 05:18 | 51.46304 | -0.47723 | 92 ft | 17 kts | 240° |
| 2026-05-07 05:18 | 51.46253 | -0.47899 | 93 ft | 18 kts | 261° |
| 2026-05-07 05:19 | 51.46249 | -0.48098 | 89 ft | 19 kts | 269° |
| 2026-05-07 05:19 | 51.46249 | -0.48325 | 85 ft | 21 kts | 270° |
| 2026-05-07 05:19 | 51.46250 | -0.48537 | 87 ft | 13 kts | 270° |
| 2026-05-07 05:19 | 51.46280 | -0.48678 | 90 ft | 14 kts | 310° |
| 2026-05-07 05:20 | 51.46290 | -0.48693 | 89 ft | 0 kts | 317° |
| 2026-05-07 05:21 | 51.46337 | -0.48731 | 92 ft | 14 kts | 342° |
| 2026-05-07 05:22 | 51.46430 | -0.48749 | 93 ft | 14 kts | 1° |
| 2026-05-07 05:22 | 51.46472 | -0.48730 | 93 ft | 5 kts | 41° |
| 2026-05-07 05:22 | 51.46478 | -0.48682 | 94 ft | 0 kts | 87° |
| 2026-05-07 05:23 | 51.46481 | -0.48382 | 92 ft | 73 kts | 90° |
| 2026-05-07 05:23 | 51.46488 | -0.47083 | 101 ft | 154 kts | 88° |
| 2026-05-07 05:23 | 51.46501 | -0.45845 | 353 ft | 171 kts | 89° |
| 2026-05-07 05:23 | 51.46466 | -0.44032 | 1522 ft | 156 kts | 94° |
| 2026-05-07 05:24 | 51.46365 | -0.42272 | 2479 ft | 157 kts | 89° |
| 2026-05-07 05:24 | 51.47116 | -0.40046 | 3053 ft | 196 kts | 45° |
| 2026-05-07 05:24 | 51.48095 | -0.38292 | 3393 ft | 232 kts | 50° |
| 2026-05-07 05:24 | 51.49189 | -0.36172 | 4024 ft | 255 kts | 50° |
| 2026-05-07 05:25 | 51.50350 | -0.33951 | 5052 ft | 265 kts | 50° |
| 2026-05-07 05:25 | 51.51553 | -0.31670 | 5785 ft | 269 kts | 51° |
| 2026-05-07 05:25 | 51.52261 | -0.30028 | 6007 ft | 271 kts | 63° |
| 2026-05-07 05:25 | 51.52981 | -0.27181 | 5998 ft | 276 kts | 72° |
| 2026-05-07 05:26 | 51.53580 | -0.24256 | 6005 ft | 274 kts | 72° |
| 2026-05-07 05:26 | 51.54178 | -0.21375 | 5995 ft | 269 kts | 71° |
| 2026-05-07 05:26 | 51.55111 | -0.18816 | 6001 ft | 271 kts | 44° |
| 2026-05-07 05:26 | 51.56646 | -0.17425 | 6008 ft | 277 kts | 14° |
| 2026-05-07 05:27 | 51.58380 | -0.17342 | 6036 ft | 280 kts | 348° |
| 2026-05-07 05:27 | 51.60140 | -0.18529 | 6033 ft | 271 kts | 335° |
| 2026-05-07 05:27 | 51.61985 | -0.19041 | 6027 ft | 275 kts | 9° |
| 2026-05-07 05:28 | 51.63733 | -0.17963 | 6031 ft | 271 kts | 28° |
| 2026-05-07 05:28 | 51.65454 | -0.16650 | 6034 ft | 276 kts | 22° |
| 2026-05-07 05:28 | 51.67201 | -0.15405 | 6025 ft | 274 kts | 28° |
| 2026-05-07 05:28 | 51.68921 | -0.14026 | 6034 ft | 278 kts | 24° |
| 2026-05-07 05:29 | 51.70726 | -0.12883 | 6032 ft | 278 kts | 20° |
| 2026-05-07 05:29 | 51.72547 | -0.11909 | 6018 ft | 272 kts | 20° |
| 2026-05-07 05:29 | 51.74142 | -0.10356 | 6026 ft | 270 kts | 47° |
| 2026-05-07 05:29 | 51.75150 | -0.07814 | 6315 ft | 271 kts | 71° |
| 2026-05-07 05:30 | 51.75554 | -0.04829 | 7364 ft | 273 kts | 83° |
| 2026-05-07 05:30 | 51.75794 | -0.01762 | 8434 ft | 279 kts | 83° |
| 2026-05-07 05:30 | 51.76033 | 0.01386 | 9443 ft | 286 kts | 83° |
| 2026-05-07 05:30 | 51.76281 | 0.04603 | 10457 ft | 293 kts | 82° |
| 2026-05-07 05:31 | 51.76548 | 0.07981 | 10999 ft | 317 kts | 82° |
| 2026-05-07 05:31 | 51.76846 | 0.11665 | 11250 ft | 349 kts | 82° |
| 2026-05-07 05:31 | 51.77175 | 0.15712 | 11682 ft | 373 kts | 82° |
| 2026-05-07 05:31 | 51.77516 | 0.19924 | 12577 ft | 383 kts | 82° |
| 2026-05-07 05:32 | 51.77854 | 0.24177 | 13568 ft | 388 kts | 82° |
| 2026-05-07 05:32 | 51.78391 | 0.28481 | 14512 ft | 393 kts | 76° |
| 2026-05-07 05:32 | 51.79076 | 0.32789 | 15450 ft | 398 kts | 75° |
| 2026-05-07 05:32 | 51.79785 | 0.37141 | 16377 ft | 404 kts | 75° |
| 2026-05-07 05:33 | 51.80506 | 0.41559 | 17294 ft | 409 kts | 75° |
| 2026-05-07 05:33 | 51.81233 | 0.46044 | 18196 ft | 415 kts | 75° |
| 2026-05-07 05:33 | 51.81963 | 0.50588 | 18989 ft | 421 kts | 75° |
| 2026-05-07 05:33 | 51.82698 | 0.55195 | 19801 ft | 425 kts | 75° |
| 2026-05-07 05:34 | 51.83435 | 0.59855 | 20608 ft | 430 kts | 75° |
| 2026-05-07 05:34 | 51.84177 | 0.64564 | 21413 ft | 434 kts | 75° |
| 2026-05-07 05:34 | 51.84915 | 0.69273 | 22188 ft | 439 kts | 75° |
| 2026-05-07 05:34 | 51.85669 | 0.74091 | 22966 ft | 444 kts | 75° |
| 2026-05-07 05:35 | 51.86429 | 0.78974 | 23696 ft | 450 kts | 75° |
| 2026-05-07 05:35 | 51.87195 | 0.83902 | 24350 ft | 454 kts | 76° |
| 2026-05-07 05:35 | 51.87967 | 0.88888 | 25059 ft | 457 kts | 76° |
| 2026-05-07 05:35 | 51.88739 | 0.93886 | 25762 ft | 460 kts | 76° |
| 2026-05-07 05:36 | 51.89518 | 0.98945 | 26440 ft | 464 kts | 76° |
| 2026-05-07 05:36 | 51.90300 | 1.04039 | 27094 ft | 468 kts | 76° |
| 2026-05-07 05:36 | 51.91076 | 1.09111 | 27739 ft | 472 kts | 75° |
| 2026-05-07 05:36 | 51.91865 | 1.14286 | 28396 ft | 475 kts | 76° |
| 2026-05-07 05:37 | 51.92660 | 1.19512 | 29014 ft | 479 kts | 76° |
| 2026-05-07 05:37 | 51.93460 | 1.24791 | 29625 ft | 483 kts | 76° |
| 2026-05-07 05:37 | 51.94260 | 1.30088 | 30254 ft | 484 kts | 76° |
| 2026-05-07 05:37 | 51.95057 | 1.35388 | 30905 ft | 483 kts | 76° |
| 2026-05-07 05:38 | 51.95849 | 1.40671 | 31604 ft | 481 kts | 76° |
| 2026-05-07 05:38 | 51.96635 | 1.45927 | 32300 ft | 479 kts | 76° |
| 2026-05-07 05:38 | 51.97416 | 1.51167 | 32977 ft | 477 kts | 76° |
| 2026-05-07 05:38 | 51.98192 | 1.56398 | 33609 ft | 477 kts | 76° |
| 2026-05-07 05:39 | 51.98965 | 1.61616 | 34206 ft | 476 kts | 76° |
| 2026-05-07 05:39 | 51.99735 | 1.66838 | 34650 ft | 477 kts | 76° |
| 2026-05-07 05:39 | 52.00509 | 1.72101 | 35015 ft | 479 kts | 76° |
| 2026-05-07 05:40 | 52.02068 | 1.82755 | 35060 ft | 486 kts | 76° |
| 2026-05-07 05:40 | 52.03608 | 1.93351 | 35048 ft | 481 kts | 76° |
| 2026-05-07 05:41 | 52.05128 | 2.03886 | 35052 ft | 479 kts | 76° |
| 2026-05-07 05:41 | 52.06641 | 2.14438 | 35061 ft | 480 kts | 76° |
| 2026-05-07 05:42 | 52.08149 | 2.25027 | 35062 ft | 481 kts | 76° |
| 2026-05-07 05:42 | 52.09652 | 2.35651 | 35057 ft | 482 kts | 76° |
| 2026-05-07 05:43 | 52.11152 | 2.46319 | 35059 ft | 483 kts | 77° |
| 2026-05-07 05:43 | 52.12944 | 2.56785 | 35065 ft | 483 kts | 72° |
| 2026-05-07 05:44 | 52.14965 | 2.67240 | 35062 ft | 484 kts | 72° |
| 2026-05-07 05:44 | 52.16974 | 2.77721 | 35057 ft | 484 kts | 72° |
| 2026-05-07 05:45 | 52.18946 | 2.88207 | 35054 ft | 484 kts | 72° |
| 2026-05-07 05:45 | 52.20895 | 2.98658 | 35057 ft | 484 kts | 72° |
| 2026-05-07 05:46 | 52.22849 | 3.09183 | 35055 ft | 484 kts | 73° |
| 2026-05-07 05:46 | 52.24576 | 3.19771 | 35044 ft | 484 kts | 83° |
| 2026-05-07 05:46 | 52.24645 | 3.25254 | 35050 ft | 484 kts | 95° |
| 2026-05-07 05:47 | 52.24107 | 3.30667 | 35060 ft | 484 kts | 105° |
| 2026-05-07 05:47 | 52.21738 | 3.40923 | 35061 ft | 484 kts | 112° |
| 2026-05-07 05:48 | 52.19181 | 3.51104 | 35052 ft | 486 kts | 112° |
| 2026-05-07 05:48 | 52.16656 | 3.61345 | 35050 ft | 487 kts | 112° |
| 2026-05-07 05:49 | 52.14179 | 3.71545 | 35049 ft | 487 kts | 112° |
| 2026-05-07 05:49 | 52.11689 | 3.81810 | 35051 ft | 488 kts | 112° |
| 2026-05-07 05:50 | 52.09185 | 3.92081 | 35052 ft | 487 kts | 112° |
| 2026-05-07 05:50 | 52.06676 | 4.02317 | 35044 ft | 487 kts | 112° |
| 2026-05-07 05:51 | 52.04177 | 4.12455 | 35047 ft | 486 kts | 112° |
| 2026-05-07 05:51 | 52.01657 | 4.22634 | 35045 ft | 485 kts | 112° |
| 2026-05-07 05:52 | 51.99133 | 4.32791 | 35047 ft | 485 kts | 112° |
| 2026-05-07 05:52 | 51.96602 | 4.42955 | 35053 ft | 485 kts | 112° |
| 2026-05-07 05:53 | 51.94062 | 4.53083 | 35051 ft | 485 kts | 112° |
| 2026-05-07 05:53 | 51.91509 | 4.63202 | 35046 ft | 485 kts | 112° |
| 2026-05-07 05:54 | 51.88943 | 4.73330 | 35040 ft | 485 kts | 112° |
| 2026-05-07 05:54 | 51.86390 | 4.83363 | 35030 ft | 485 kts | 113° |
| 2026-05-07 05:55 | 51.83811 | 4.93453 | 35034 ft | 485 kts | 113° |
| 2026-05-07 05:55 | 51.81219 | 5.03550 | 35036 ft | 485 kts | 113° |
| 2026-05-07 05:56 | 51.78621 | 5.13622 | 35036 ft | 485 kts | 113° |
| 2026-05-07 05:56 | 51.76019 | 5.23668 | 35031 ft | 485 kts | 113° |
| 2026-05-07 05:57 | 51.73407 | 5.33706 | 35023 ft | 485 kts | 113° |
| 2026-05-07 05:57 | 51.70786 | 5.43734 | 35020 ft | 485 kts | 113° |
| 2026-05-07 05:58 | 51.68161 | 5.53735 | 35022 ft | 484 kts | 113° |
| 2026-05-07 05:58 | 51.65542 | 5.63669 | 35020 ft | 484 kts | 113° |
| 2026-05-07 05:59 | 51.62901 | 5.73643 | 35019 ft | 484 kts | 113° |
| 2026-05-07 05:59 | 51.60247 | 5.83624 | 35021 ft | 484 kts | 113° |
| 2026-05-07 06:00 | 51.57590 | 5.93573 | 35018 ft | 484 kts | 113° |
| 2026-05-07 06:00 | 51.54919 | 6.03529 | 35022 ft | 484 kts | 113° |
| 2026-05-07 06:01 | 51.52264 | 6.13391 | 35022 ft | 484 kts | 114° |
| 2026-05-07 06:01 | 51.49592 | 6.23309 | 35019 ft | 484 kts | 113° |
| 2026-05-07 06:02 | 51.47101 | 6.33356 | 35021 ft | 484 kts | 111° |
| 2026-05-07 06:02 | 51.44674 | 6.43417 | 35018 ft | 484 kts | 111° |
| 2026-05-07 06:03 | 51.42207 | 6.53405 | 35017 ft | 485 kts | 112° |
| 2026-05-07 06:03 | 51.39717 | 6.63432 | 35018 ft | 485 kts | 112° |
| 2026-05-07 06:04 | 51.37225 | 6.73458 | 35021 ft | 485 kts | 112° |
| 2026-05-07 06:04 | 51.34725 | 6.83481 | 35021 ft | 485 kts | 112° |
| 2026-05-07 06:05 | 51.32216 | 6.93499 | 35016 ft | 485 kts | 112° |
| 2026-05-07 06:05 | 51.29684 | 7.03564 | 34061 ft | 497 kts | 112° |
| 2026-05-07 06:05 | 51.28384 | 7.08676 | 32969 ft | 493 kts | 114° |
| 2026-05-07 06:06 | 51.26638 | 7.13373 | 31894 ft | 491 kts | 129° |
| 2026-05-07 06:06 | 51.24204 | 7.17148 | 30861 ft | 488 kts | 144° |
| 2026-05-07 06:06 | 51.21255 | 7.19730 | 29945 ft | 479 kts | 156° |
| 2026-05-07 06:06 | 51.18234 | 7.21880 | 29133 ft | 472 kts | 155° |
| 2026-05-07 06:07 | 51.15295 | 7.24124 | 28401 ft | 465 kts | 154° |
| 2026-05-07 06:07 | 51.12413 | 7.26411 | 27705 ft | 459 kts | 154° |
| 2026-05-07 06:07 | 51.09624 | 7.28682 | 27019 ft | 453 kts | 153° |
| 2026-05-07 06:07 | 51.06810 | 7.31022 | 26350 ft | 448 kts | 153° |
| 2026-05-07 06:08 | 51.04087 | 7.33283 | 25709 ft | 444 kts | 153° |
| 2026-05-07 06:08 | 51.01354 | 7.35541 | 25107 ft | 443 kts | 153° |
| 2026-05-07 06:08 | 50.98595 | 7.37811 | 24510 ft | 449 kts | 153° |
| 2026-05-07 06:08 | 50.95823 | 7.40089 | 23888 ft | 446 kts | 153° |
| 2026-05-07 06:09 | 50.93078 | 7.42342 | 23232 ft | 441 kts | 153° |
| 2026-05-07 06:09 | 50.90370 | 7.44563 | 22563 ft | 435 kts | 153° |
| 2026-05-07 06:09 | 50.87702 | 7.46747 | 21959 ft | 428 kts | 153° |
| 2026-05-07 06:09 | 50.85074 | 7.48896 | 21367 ft | 423 kts | 153° |
| 2026-05-07 06:10 | 50.82468 | 7.51023 | 20786 ft | 421 kts | 153° |
| 2026-05-07 06:10 | 50.79898 | 7.53118 | 20212 ft | 421 kts | 153° |
| 2026-05-07 06:10 | 50.77302 | 7.55232 | 19641 ft | 419 kts | 153° |
| 2026-05-07 06:10 | 50.74714 | 7.57340 | 19061 ft | 417 kts | 153° |
| 2026-05-07 06:11 | 50.72142 | 7.59430 | 18467 ft | 413 kts | 153° |
| 2026-05-07 06:11 | 50.69597 | 7.61496 | 17877 ft | 409 kts | 153° |
| 2026-05-07 06:11 | 50.67079 | 7.63537 | 17337 ft | 403 kts | 153° |
| 2026-05-07 06:11 | 50.64594 | 7.65548 | 16850 ft | 398 kts | 153° |
| 2026-05-07 06:12 | 50.62973 | 7.66859 | 16520 ft | 396 kts | 153° |
| 2026-05-07 06:12 | 50.60511 | 7.68848 | 16057 ft | 399 kts | 153° |
| 2026-05-07 06:12 | 50.58043 | 7.70839 | 15594 ft | 397 kts | 153° |
| 2026-05-07 06:12 | 50.55596 | 7.72810 | 15147 ft | 393 kts | 153° |
| 2026-05-07 06:13 | 50.53170 | 7.74761 | 14715 ft | 390 kts | 153° |
| 2026-05-07 06:13 | 50.50745 | 7.76710 | 14280 ft | 389 kts | 153° |
| 2026-05-07 06:13 | 50.48339 | 7.78643 | 13840 ft | 387 kts | 153° |
| 2026-05-07 06:13 | 50.45982 | 7.80533 | 13357 ft | 384 kts | 153° |
| 2026-05-07 06:14 | 50.43618 | 7.82442 | 12919 ft | 379 kts | 152° |
| 2026-05-07 06:14 | 50.41432 | 7.84696 | 12568 ft | 377 kts | 143° |
| 2026-05-07 06:14 | 50.39374 | 7.87291 | 12216 ft | 383 kts | 140° |
| 2026-05-07 06:14 | 50.37324 | 7.89990 | 11855 ft | 385 kts | 140° |
| 2026-05-07 06:15 | 50.35277 | 7.92652 | 11497 ft | 378 kts | 141° |
| 2026-05-07 06:15 | 50.33263 | 7.95209 | 11140 ft | 366 kts | 141° |
| 2026-05-07 06:15 | 50.31295 | 7.97663 | 10796 ft | 356 kts | 142° |
| 2026-05-07 06:15 | 50.29375 | 8.00034 | 10462 ft | 346 kts | 142° |
| 2026-05-07 06:16 | 50.27507 | 8.02337 | 10133 ft | 338 kts | 142° |
| 2026-05-07 06:16 | 50.25792 | 8.04653 | 9999 ft | 321 kts | 134° |
| 2026-05-07 06:16 | 50.24398 | 8.07270 | 9967 ft | 304 kts | 127° |
| 2026-05-07 06:16 | 50.23172 | 8.09864 | 9947 ft | 290 kts | 126° |
| 2026-05-07 06:17 | 50.21988 | 8.12396 | 9954 ft | 288 kts | 127° |
| 2026-05-07 06:17 | 50.20795 | 8.14912 | 9972 ft | 288 kts | 127° |
| 2026-05-07 06:17 | 50.19589 | 8.17417 | 9972 ft | 289 kts | 128° |
| 2026-05-07 06:17 | 50.18368 | 8.19924 | 9973 ft | 290 kts | 128° |
| 2026-05-07 06:18 | 50.17144 | 8.22419 | 9894 ft | 289 kts | 128° |
| 2026-05-07 06:18 | 50.15922 | 8.24900 | 9662 ft | 287 kts | 128° |
| 2026-05-07 06:18 | 50.14707 | 8.27357 | 9254 ft | 285 kts | 128° |
| 2026-05-07 06:18 | 50.13506 | 8.29778 | 9065 ft | 278 kts | 128° |
| 2026-05-07 06:19 | 50.12334 | 8.32138 | 9011 ft | 281 kts | 128° |
| 2026-05-07 06:19 | 50.11125 | 8.34575 | 8926 ft | 285 kts | 126° |
| 2026-05-07 06:19 | 50.10286 | 8.37341 | 8815 ft | 285 kts | 99° |
| 2026-05-07 06:19 | 50.10019 | 8.40385 | 8830 ft | 285 kts | 96° |
| 2026-05-07 06:20 | 50.09758 | 8.43449 | 8834 ft | 285 kts | 96° |
| 2026-05-07 06:20 | 50.09301 | 8.46432 | 8681 ft | 284 kts | 102° |
| 2026-05-07 06:20 | 50.09329 | 8.49460 | 8515 ft | 281 kts | 68° |
| 2026-05-07 06:20 | 50.10302 | 8.52002 | 8468 ft | 272 kts | 49° |
| 2026-05-07 06:21 | 50.11507 | 8.54304 | 8386 ft | 274 kts | 49° |
| 2026-05-07 06:21 | 50.12653 | 8.56684 | 8304 ft | 275 kts | 52° |
| 2026-05-07 06:21 | 50.13703 | 8.59190 | 8227 ft | 276 kts | 56° |
| 2026-05-07 06:21 | 50.14670 | 8.61734 | 8149 ft | 276 kts | 58° |
| 2026-05-07 06:22 | 50.15614 | 8.64337 | 8064 ft | 276 kts | 58° |
| 2026-05-07 06:22 | 50.17417 | 8.69592 | 7911 ft | 274 kts | 65° |
| 2026-05-07 06:22 | 50.18084 | 8.72379 | 7827 ft | 274 kts | 68° |
| 2026-05-07 06:23 | 50.18713 | 8.75177 | 7750 ft | 273 kts | 68° |
| 2026-05-07 06:23 | 50.19350 | 8.77969 | 7668 ft | 272 kts | 68° |
| 2026-05-07 06:23 | 50.19988 | 8.80748 | 7587 ft | 272 kts | 68° |
| 2026-05-07 06:23 | 50.20635 | 8.83522 | 7514 ft | 271 kts | 68° |
| 2026-05-07 06:24 | 50.21273 | 8.86249 | 7435 ft | 271 kts | 68° |
| 2026-05-07 06:24 | 50.21929 | 8.89041 | 7356 ft | 270 kts | 68° |
| 2026-05-07 06:24 | 50.22567 | 8.91764 | 7274 ft | 270 kts | 68° |
| 2026-05-07 06:24 | 50.23211 | 8.94513 | 7199 ft | 269 kts | 68° |
| 2026-05-07 06:25 | 50.23852 | 8.97253 | 7119 ft | 268 kts | 68° |
| 2026-05-07 06:25 | 50.24493 | 8.99993 | 7050 ft | 268 kts | 68° |
| 2026-05-07 06:25 | 50.25130 | 9.02726 | 6956 ft | 268 kts | 68° |
| 2026-05-07 06:25 | 50.25768 | 9.05466 | 6898 ft | 268 kts | 68° |
| 2026-05-07 06:26 | 50.26408 | 9.08211 | 6812 ft | 269 kts | 68° |
| 2026-05-07 06:26 | 50.26541 | 9.08782 | 6794 ft | 269 kts | 68° |
| 2026-05-07 06:26 | 50.27125 | 9.11297 | 6727 ft | 270 kts | 68° |
| 2026-05-07 06:26 | 50.27759 | 9.14026 | 6634 ft | 270 kts | 69° |
| 2026-05-07 06:27 | 50.27932 | 9.14773 | 6617 ft | 271 kts | 69° |
| 2026-05-07 06:27 | 50.28573 | 9.17540 | 6544 ft | 270 kts | 69° |
| 2026-05-07 06:27 | 50.29213 | 9.20304 | 6476 ft | 270 kts | 69° |
| 2026-05-07 06:27 | 50.29853 | 9.23075 | 6379 ft | 270 kts | 69° |
| 2026-05-07 06:28 | 50.30490 | 9.25835 | 6302 ft | 269 kts | 69° |
| 2026-05-07 06:28 | 50.31123 | 9.28582 | 6227 ft | 268 kts | 69° |
| 2026-05-07 06:28 | 50.31753 | 9.31317 | 6155 ft | 267 kts | 69° |
| 2026-05-07 06:28 | 50.32380 | 9.34048 | 6080 ft | 266 kts | 69° |
| 2026-05-07 06:29 | 50.32999 | 9.36776 | 5997 ft | 264 kts | 71° |
| 2026-05-07 06:29 | 50.33131 | 9.39603 | 5891 ft | 263 kts | 102° |
| 2026-05-07 06:29 | 50.32331 | 9.42142 | 5817 ft | 262 kts | 132° |
| 2026-05-07 06:29 | 50.30866 | 9.43780 | 5773 ft | 261 kts | 160° |
| 2026-05-07 06:30 | 50.29080 | 9.44275 | 5707 ft | 262 kts | 185° |
| 2026-05-07 06:30 | 50.27317 | 9.43657 | 5651 ft | 260 kts | 199° |
| 2026-05-07 06:30 | 50.25571 | 9.42810 | 5545 ft | 264 kts | 199° |
| 2026-05-07 06:30 | 50.23956 | 9.41597 | 5506 ft | 255 kts | 223° |
| 2026-05-07 06:31 | 50.22902 | 9.39402 | 5487 ft | 254 kts | 247° |
| 2026-05-07 06:31 | 50.22290 | 9.36858 | 5423 ft | 254 kts | 252° |
| 2026-05-07 06:31 | 50.21698 | 9.34245 | 5350 ft | 255 kts | 252° |
| 2026-05-07 06:31 | 50.21104 | 9.31627 | 5277 ft | 256 kts | 252° |
| 2026-05-07 06:32 | 50.20509 | 9.29011 | 5197 ft | 255 kts | 252° |
| 2026-05-07 06:32 | 50.19915 | 9.26420 | 5124 ft | 253 kts | 252° |
| 2026-05-07 06:32 | 50.19322 | 9.23854 | 5057 ft | 250 kts | 252° |
| 2026-05-07 06:32 | 50.18734 | 9.21308 | 4981 ft | 248 kts | 252° |
| 2026-05-07 06:33 | 50.18149 | 9.18778 | 4911 ft | 246 kts | 251° |
| 2026-05-07 06:33 | 50.17568 | 9.16276 | 4844 ft | 246 kts | 251° |
| 2026-05-07 06:33 | 50.16982 | 9.13751 | 4791 ft | 249 kts | 252° |
| 2026-05-07 06:33 | 50.16390 | 9.11200 | 4719 ft | 251 kts | 251° |
| 2026-05-07 06:34 | 50.15793 | 9.08635 | 4649 ft | 251 kts | 251° |
| 2026-05-07 06:34 | 50.15195 | 9.06076 | 4580 ft | 251 kts | 251° |
| 2026-05-07 06:34 | 50.14607 | 9.03560 | 4489 ft | 241 kts | 252° |
| 2026-05-07 06:34 | 50.14077 | 9.01167 | 4421 ft | 226 kts | 253° |
| 2026-05-07 06:35 | 50.13576 | 8.98952 | 4361 ft | 213 kts | 252° |
| 2026-05-07 06:35 | 50.13085 | 8.96847 | 4289 ft | 200 kts | 252° |
| 2026-05-07 06:35 | 50.12622 | 8.94885 | 4224 ft | 185 kts | 252° |
| 2026-05-07 06:35 | 50.12187 | 8.93050 | 4205 ft | 182 kts | 252° |
| 2026-05-07 06:36 | 50.11744 | 8.91178 | 4131 ft | 184 kts | 252° |
| 2026-05-07 06:36 | 50.11310 | 8.89350 | 4069 ft | 177 kts | 252° |
| 2026-05-07 06:36 | 50.10889 | 8.87579 | 4042 ft | 173 kts | 253° |
| 2026-05-07 06:36 | 50.10470 | 8.85812 | 4045 ft | 175 kts | 253° |
| 2026-05-07 06:37 | 50.10038 | 8.83986 | 3843 ft | 182 kts | 252° |
| 2026-05-07 06:37 | 50.09604 | 8.82170 | 3589 ft | 175 kts | 252° |
| 2026-05-07 06:37 | 50.09189 | 8.80432 | 3362 ft | 170 kts | 253° |
| 2026-05-07 06:37 | 50.08778 | 8.78701 | 3141 ft | 171 kts | 253° |
| 2026-05-07 06:38 | 50.08365 | 8.76959 | 2908 ft | 172 kts | 253° |
| 2026-05-07 06:38 | 50.07953 | 8.75234 | 2667 ft | 167 kts | 253° |
| 2026-05-07 06:38 | 50.07563 | 8.73599 | 2434 ft | 154 kts | 253° |
| 2026-05-07 06:38 | 50.07212 | 8.72122 | 2265 ft | 144 kts | 253° |
| 2026-05-07 06:39 | 50.06860 | 8.70634 | 2065 ft | 148 kts | 253° |
| 2026-05-07 06:39 | 50.06504 | 8.69138 | 1858 ft | 145 kts | 253° |
| 2026-05-07 06:39 | 50.06159 | 8.67695 | 1666 ft | 138 kts | 254° |
| 2026-05-07 06:39 | 50.05833 | 8.66324 | 1460 ft | 133 kts | 253° |
| 2026-05-07 06:40 | 50.05514 | 8.64983 | 1297 ft | 133 kts | 253° |
| 2026-05-07 06:40 | 50.05191 | 8.63624 | 1088 ft | 133 kts | 252° |
| 2026-05-07 06:40 | 50.04879 | 8.62275 | 855 ft | 131 kts | 252° |
| 2026-05-07 06:40 | 50.04566 | 8.60966 | 689 ft | 128 kts | 251° |
| 2026-05-07 06:41 | 50.04248 | 8.59676 | 522 ft | 126 kts | 251° |
| 2026-05-07 06:41 | 50.03941 | 8.58386 | 405 ft | 128 kts | 251° |
| 2026-05-07 06:41 | 50.03648 | 8.57144 | 366 ft | 108 kts | 249° |
| 2026-05-07 06:41 | 50.03432 | 8.56260 | 369 ft | 81 kts | 250° |
| 2026-05-07 06:42 | 50.03244 | 8.55477 | 362 ft | 72 kts | 249° |
| 2026-05-07 06:42 | 50.03081 | 8.54790 | 358 ft | 64 kts | 249° |
| 2026-05-07 06:42 | 50.02938 | 8.54200 | 350 ft | 56 kts | 249° |
| 2026-05-07 06:42 | 50.02819 | 8.53680 | 354 ft | 36 kts | 249° |
| 2026-05-07 06:43 | 50.02781 | 8.53446 | 349 ft | 18 kts | 288° |
| 2026-05-07 06:43 | 50.02809 | 8.53371 | 351 ft | 0 kts | 305° |
| 2026-05-07 06:43 | 50.02809 | 8.53370 | 351 ft | 1 kts | 305° |
| 2026-05-07 06:43 | 50.02814 | 8.53359 | 353 ft | 2 kts | 307° |
| 2026-05-07 06:44 | 50.02825 | 8.53342 | 353 ft | 9 kts | 315° |
| 2026-05-07 06:44 | 50.02907 | 8.53309 | 350 ft | 15 kts | 19° |
| 2026-05-07 06:44 | 50.02992 | 8.53396 | 356 ft | 15 kts | 58° |
| 2026-05-07 06:44 | 50.03032 | 8.53551 | 355 ft | 17 kts | 73° |
| 2026-05-07 06:45 | 50.03078 | 8.53733 | 351 ft | 19 kts | 68° |
| 2026-05-07 06:45 | 50.03131 | 8.53936 | 348 ft | 22 kts | 69° |
| 2026-05-07 06:45 | 50.03171 | 8.54103 | 347 ft | 22 kts | 69° |